Time;durP1;ratioP1;P1;durP2;ratioP2;P2;SDS_P1;SDS_P2;PMS_P1;PMS_P2;Temp;Humidity;BMP_temperature;BMP_pressure;BME280_temperature;BME280_humidity;BME280_pressure;Samples;Min_cycle;Max_cycle;Signal;HPM_P1;HPM_P2
2022/08/13 00:00:59;;;;;;;9.50;5.65;;;;;;;;;;5053014;28;20512;-69
2022/08/13 00:03:26;;;;;;;7.95;5.90;;;;;;;;;;5053155;28;20092;-68
2022/08/13 00:05:52;;;;;;;7.18;5.72;;;;;;;;;;5053663;28;20108;-68
2022/08/13 00:08:22;;;;;;;8.02;6.15;;;;;;;;;;5053628;28;20478;-68
2022/08/13 00:10:48;;;;;;;8.05;6.00;;;;;;;;;;5053132;28;20432;-68
2022/08/13 00:13:16;;;;;;;12.60;5.95;;;;;;;;;;5053288;28;20051;-68
2022/08/13 00:15:43;;;;;;;11.77;6.30;;;;;;;;;;5053542;28;20033;-68
2022/08/13 00:18:17;;;;;;;10.05;6.90;;;;;;;;;;5052980;28;20025;-69
2022/08/13 00:20:45;;;;;;;8.90;5.65;;;;;;;;;;5052882;28;20127;-68
2022/08/13 00:23:15;;;;;;;11.00;6.25;;;;;;;;;;5054917;28;20017;-68
2022/08/13 00:25:42;;;;;;;8.20;5.93;;;;;;;;;;5056942;28;20100;-67
2022/08/13 00:28:08;;;;;;;7.63;6.13;;;;;;;;;;5056950;28;20056;-68
2022/08/13 00:30:35;;;;;;;7.57;6.40;;;;;;;;;;5056873;28;20025;-67
2022/08/13 00:33:02;;;;;;;8.55;5.95;;;;;;;;;;5056778;28;20033;-68
2022/08/13 00:35:29;;;;;;;8.10;6.30;;;;;;;;;;5056771;28;20035;-68
2022/08/13 00:37:57;;;;;;;8.00;6.78;;;;;;;;;;5057022;28;20096;-69
2022/08/13 00:40:23;;;;;;;9.65;6.57;;;;;;;;;;5056661;28;20401;-68
2022/08/13 00:42:50;;;;;;;7.72;6.13;;;;;;;;;;5056689;28;20049;-67
2022/08/13 00:45:17;;;;;;;11.80;6.88;;;;;;;;;;5056631;28;20021;-68
2022/08/13 00:50:28;;;;;;;8.52;6.05;;;;;;;;;;5057093;28;20037;-67
2022/08/13 00:52:54;;;;;;;11.00;6.43;;;;;;;;;;5056485;28;20404;-68
2022/08/13 00:55:21;;;;;;;8.52;6.07;;;;;;;;;;5056217;28;20049;-68
2022/08/13 00:57:48;;;;;;;9.30;6.80;;;;;;;;;;5056703;28;20505;-68
2022/08/13 01:00:16;;;;;;;7.60;6.43;;;;;;;;;;5056232;28;20096;-69
2022/08/13 01:02:43;;;;;;;10.82;6.82;;;;;;;;;;5056545;28;20489;-69
2022/08/13 01:05:09;;;;;;;11.52;7.03;;;;;;;;;;5056218;28;20082;-67
2022/08/13 01:07:41;;;;;;;8.45;6.32;;;;;;;;;;5056220;28;20101;-68
2022/08/13 01:10:07;;;;;;;8.63;6.38;;;;;;;;;;5038012;28;20025;-68
2022/08/13 01:12:37;;;;;;;10.02;6.85;;;;;;;;;;5056624;28;20036;-67
2022/08/13 01:15:04;;;;;;;12.52;7.32;;;;;;;;;;5057174;28;20484;-69
2022/08/13 01:17:31;;;;;;;8.18;6.38;;;;;;;;;;5056250;28;20021;-67
2022/08/13 01:19:57;;;;;;;10.23;6.80;;;;;;;;;;5056103;28;20033;-69
2022/08/13 01:22:24;;;;;;;11.95;7.28;;;;;;;;;;5038073;28;20055;-68
2022/08/13 01:24:51;;;;;;;10.10;6.80;;;;;;;;;;5056420;28;20462;-68
2022/08/13 01:27:21;;;;;;;10.25;6.90;;;;;;;;;;5055907;28;20025;-68
2022/08/13 01:29:48;;;;;;;8.90;7.00;;;;;;;;;;5055823;28;20074;-67
2022/08/13 01:32:15;;;;;;;10.38;6.85;;;;;;;;;;5055999;28;20477;-68
2022/08/13 01:34:42;;;;;;;9.23;6.88;;;;;;;;;;5055289;28;20481;-68
2022/08/13 01:37:09;;;;;;;7.70;6.90;;;;;;;;;;5055613;28;20032;-68
2022/08/13 01:39:35;;;;;;;8.90;6.63;;;;;;;;;;5055528;28;20553;-68
2022/08/13 01:42:01;;;;;;;9.10;7.35;;;;;;;;;;5055565;28;20104;-68
2022/08/13 01:44:31;;;;;;;9.93;7.60;;;;;;;;;;5055588;28;20021;-67
2022/08/13 01:52:34;;;;;;;11.95;7.38;;;;;;;;;;5055722;28;20056;-68
2022/08/13 01:55:04;;;;;;;8.93;7.25;;;;;;;;;;5055116;28;20128;-68
2022/08/13 01:57:33;;;;;;;8.55;7.10;;;;;;;;;;5056122;28;20369;-68
2022/08/13 02:00:00;;;;;;;10.38;7.30;;;;;;;;;;5055065;28;20052;-68
2022/08/13 02:02:30;;;;;;;9.95;7.57;;;;;;;;;;5055168;28;20032;-67
2022/08/13 02:04:56;;;;;;;12.87;8.07;;;;;;;;;;5055179;28;20021;-67
2022/08/13 02:07:22;;;;;;;9.77;7.68;;;;;;;;;;5055330;28;20327;-67
2022/08/13 02:09:48;;;;;;;8.90;7.78;;;;;;;;;;5037136;28;20021;-68
2022/08/13 02:12:15;;;;;;;7.88;6.55;;;;;;;;;;5054948;28;20029;-69
2022/08/13 02:14:42;;;;;;;9.15;7.40;;;;;;;;;;5055432;28;20053;-68
2022/08/13 02:17:27;;;;;;;9.07;7.60;;;;;;;;;;5054905;28;20032;-68
2022/08/13 02:19:54;;;;;;;10.07;7.50;;;;;;;;;;5036663;28;20029;-67
2022/08/13 02:22:21;;;;;;;9.25;7.57;;;;;;;;;;5054752;28;20017;-68
2022/08/13 02:24:54;;;;;;;12.65;7.50;;;;;;;;;;5054989;28;20025;-68
2022/08/13 02:27:21;;;;;;;10.45;7.57;;;;;;;;;;5054658;28;20118;-68
2022/08/13 02:29:49;;;;;;;8.80;7.32;;;;;;;;;;5054908;28;20029;-68
2022/08/13 02:32:16;;;;;;;11.93;8.05;;;;;;;;;;5054588;28;20551;-68
2022/08/13 02:34:43;;;;;;;11.32;7.47;;;;;;;;;;5054554;28;20517;-67
2022/08/13 02:37:11;;;;;;;9.68;7.70;;;;;;;;;;5054760;28;20021;-68
2022/08/13 02:39:37;;;;;;;10.15;7.75;;;;;;;;;;5054650;28;20049;-68
2022/08/13 02:42:03;;;;;;;8.32;7.43;;;;;;;;;;5054636;28;20025;-68
2022/08/13 02:44:29;;;;;;;9.38;7.50;;;;;;;;;;5054387;28;20473;-68
2022/08/13 02:46:55;;;;;;;13.23;8.75;;;;;;;;;;5053312;28;20021;-67
2022/08/13 02:49:21;;;;;;;10.55;7.82;;;;;;;;;;5054546;28;20071;-68
2022/08/13 02:51:49;;;;;;;10.98;7.63;;;;;;;;;;5054503;28;20469;-68
2022/08/13 02:54:20;;;;;;;9.35;6.95;;;;;;;;;;5054185;28;20045;-68
2022/08/13 02:56:46;;;;;;;9.55;7.85;;;;;;;;;;5054755;28;20024;-68
2022/08/13 02:59:13;;;;;;;8.98;6.82;;;;;;;;;;5054626;28;20029;-68
2022/08/13 03:01:40;;;;;;;8.90;7.15;;;;;;;;;;5054118;28;20028;-68
2022/08/13 03:04:07;;;;;;;10.00;7.00;;;;;;;;;;5054048;28;20517;-68
2022/08/13 03:06:34;;;;;;;9.23;7.38;;;;;;;;;;5054163;28;20477;-69
2022/08/13 03:09:01;;;;;;;9.70;8.35;;;;;;;;;;5053927;28;20114;-68
2022/08/13 03:11:28;;;;;;;9.32;8.27;;;;;;;;;;5054138;28;20024;-68
2022/08/13 03:13:59;;;;;;;12.57;8.45;;;;;;;;;;5054522;28;20579;-68
2022/08/13 03:16:27;;;;;;;10.32;8.25;;;;;;;;;;5053750;28;20111;-68
2022/08/13 03:18:54;;;;;;;10.23;7.82;;;;;;;;;;5053724;28;20033;-68
2022/08/13 03:21:43;;;;;;;11.93;8.07;;;;;;;;;;5053941;28;20024;-68
2022/08/13 03:24:12;;;;;;;10.48;7.90;;;;;;;;;;5053705;28;20032;-68
2022/08/13 03:26:38;;;;;;;9.13;7.47;;;;;;;;;;5053633;28;20543;-68
2022/08/13 03:29:04;;;;;;;10.93;8.25;;;;;;;;;;5053580;28;20035;-68
2022/08/13 03:31:31;;;;;;;11.45;8.10;;;;;;;;;;5053793;28;20436;-68
2022/08/13 03:33:58;;;;;;;10.57;7.78;;;;;;;;;;5035590;28;20028;-67
2022/08/13 03:36:26;;;;;;;9.20;7.57;;;;;;;;;;5053706;28;20473;-67
2022/08/13 03:38:52;;;;;;;9.55;7.93;;;;;;;;;;5053719;28;20056;-68
2022/08/13 03:41:18;;;;;;;10.23;8.48;;;;;;;;;;5053577;28;20052;-68
2022/08/13 03:43:45;;;;;;;13.93;9.05;;;;;;;;;;5053347;28;20078;-68
2022/08/13 03:46:38;;;;;;;10.77;7.88;;;;;;;;;;5053342;28;20052;-68
2022/08/13 03:49:04;;;;;;;11.15;8.32;;;;;;;;;;5051862;28;20033;-67
2022/08/13 03:51:30;;;;;;;11.68;8.30;;;;;;;;;;5053567;28;20085;-67
2022/08/13 03:53:59;;;;;;;12.23;8.63;;;;;;;;;;5053079;28;20053;-68
2022/08/13 03:56:25;;;;;;;9.73;7.63;;;;;;;;;;5053235;28;20028;-68
2022/08/13 03:58:53;;;;;;;9.70;7.75;;;;;;;;;;5052822;28;20032;-68
2022/08/13 04:01:19;;;;;;;13.02;8.75;;;;;;;;;;5053055;28;20028;-67
2022/08/13 04:03:46;;;;;;;11.43;8.40;;;;;;;;;;5053363;28;20028;-68
2022/08/13 04:06:16;;;;;;;10.75;8.32;;;;;;;;;;5053091;28;20064;-69
2022/08/13 04:08:43;;;;;;;9.65;7.57;;;;;;;;;;5053116;28;20024;-67
2022/08/13 04:11:19;;;;;;;11.82;8.07;;;;;;;;;;5053288;28;20056;-68
2022/08/13 04:13:46;;;;;;;11.00;8.02;;;;;;;;;;5053347;28;20029;-68
2022/08/13 04:16:14;;;;;;;11.70;8.43;;;;;;;;;;5053786;28;20029;-68
2022/08/13 04:18:41;;;;;;;8.65;7.70;;;;;;;;;;5052955;28;20075;-67
2022/08/13 04:21:09;;;;;;;9.82;8.30;;;;;;;;;;5052825;28;20358;-67
2022/08/13 04:23:38;;;;;;;14.95;8.65;;;;;;;;;;5053164;28;20017;-68
2022/08/13 04:26:04;;;;;;;10.70;9.07;;;;;;;;;;5035059;28;20074;-68
2022/08/13 04:28:30;;;;;;;11.95;8.85;;;;;;;;;;5053134;28;20045;-67
2022/08/13 04:30:58;;;;;;;9.80;7.90;;;;;;;;;;5052832;28;20493;-68
2022/08/13 04:33:24;;;;;;;9.95;7.82;;;;;;;;;;5052844;28;20056;-68
2022/08/13 04:35:50;;;;;;;10.23;7.93;;;;;;;;;;5052815;28;20029;-67
2022/08/13 04:38:16;;;;;;;10.40;7.60;;;;;;;;;;5052800;28;20485;-67
2022/08/13 04:40:44;;;;;;;10.43;7.65;;;;;;;;;;5034870;28;20065;-68
2022/08/13 04:43:11;;;;;;;10.00;7.65;;;;;;;;;;5052798;28;20103;-67
2022/08/13 04:45:38;;;;;;;9.90;8.35;;;;;;;;;;5052719;28;20021;-68
2022/08/13 04:48:07;;;;;;;10.43;8.77;;;;;;;;;;5053258;28;20031;-68
2022/08/13 04:50:34;;;;;;;12.35;8.43;;;;;;;;;;5052703;28;20151;-68
2022/08/13 04:53:02;;;;;;;9.35;8.35;;;;;;;;;;5052654;28;20108;-67
2022/08/13 04:55:29;;;;;;;10.75;8.18;;;;;;;;;;5052458;28;20508;-68
2022/08/13 04:57:55;;;;;;;8.75;7.82;;;;;;;;;;5052615;28;20503;-67
2022/08/13 05:00:24;;;;;;;10.48;8.20;;;;;;;;;;5052690;28;20473;-67
2022/08/13 05:02:52;;;;;;;10.80;7.50;;;;;;;;;;5052570;28;20023;-68
2022/08/13 05:05:21;;;;;;;11.38;8.43;;;;;;;;;;5052795;28;20021;-67
2022/08/13 05:07:49;;;;;;;11.18;8.88;;;;;;;;;;5052823;28;20019;-67
2022/08/13 05:10:15;;;;;;;11.70;9.00;;;;;;;;;;5054908;28;20481;-67
2022/08/13 05:12:42;;;;;;;14.85;9.35;;;;;;;;;;5056404;28;20493;-68
2022/08/13 05:15:09;;;;;;;14.68;9.10;;;;;;;;;;5056632;28;20435;-67
2022/08/13 05:17:35;;;;;;;11.50;8.60;;;;;;;;;;5055997;28;20542;-68
2022/08/13 05:20:01;;;;;;;12.15;9.43;;;;;;;;;;5056193;28;20033;-68
2022/08/13 05:22:28;;;;;;;13.05;8.63;;;;;;;;;;5056462;28;20049;-68
2022/08/13 05:24:54;;;;;;;12.10;8.35;;;;;;;;;;5055928;28;20106;-68
2022/08/13 05:27:20;;;;;;;11.48;8.52;;;;;;;;;;5056123;28;20378;-68
2022/08/13 05:29:47;;;;;;;12.77;8.00;;;;;;;;;;5055859;28;20027;-68
2022/08/13 05:32:13;;;;;;;11.80;8.20;;;;;;;;;;5037882;28;20029;-68
2022/08/13 05:34:39;;;;;;;9.70;8.32;;;;;;;;;;5055758;28;20075;-68
2022/08/13 05:37:15;;;;;;;11.20;8.85;;;;;;;;;;5055680;28;20025;-68
2022/08/13 05:39:42;;;;;;;10.18;9.13;;;;;;;;;;5037412;28;20036;-67
2022/08/13 05:42:08;;;;;;;13.27;9.73;;;;;;;;;;5055619;28;20017;-68
2022/08/13 05:44:35;;;;;;;13.13;8.73;;;;;;;;;;5055784;28;20021;-68
2022/08/13 05:47:00;;;;;;;9.48;8.48;;;;;;;;;;5055724;28;20067;-68
2022/08/13 05:49:26;;;;;;;12.40;8.88;;;;;;;;;;5055664;28;20033;-67
2022/08/13 05:51:52;;;;;;;13.90;9.55;;;;;;;;;;5055383;28;20063;-67
2022/08/13 05:54:19;;;;;;;10.80;9.35;;;;;;;;;;5055168;28;20056;-68
2022/08/13 05:56:45;;;;;;;13.60;10.00;;;;;;;;;;5055333;28;20021;-68
2022/08/13 06:04:40;;;;;;;11.30;9.32;;;;;;;;;;5055223;28;20078;-69
2022/08/13 06:07:09;;;;;;;13.35;9.57;;;;;;;;;;5055390;28;20021;-68
2022/08/13 06:09:35;;;;;;;10.95;9.77;;;;;;;;;;5055070;28;20017;-68
2022/08/13 06:12:01;;;;;;;11.25;8.75;;;;;;;;;;5055310;28;20025;-68
2022/08/13 06:14:31;;;;;;;10.65;8.10;;;;;;;;;;5055427;28;20017;-68
2022/08/13 06:16:57;;;;;;;12.13;8.43;;;;;;;;;;5055087;28;20025;-68
2022/08/13 06:19:24;;;;;;;11.02;8.70;;;;;;;;;;5055046;28;20029;-68
2022/08/13 06:21:51;;;;;;;11.20;8.55;;;;;;;;;;5036651;28;20462;-67
2022/08/13 06:24:17;;;;;;;13.13;8.68;;;;;;;;;;5055059;28;20091;-68
2022/08/13 06:26:43;;;;;;;10.00;7.97;;;;;;;;;;5054832;28;20090;-68
2022/08/13 06:29:10;;;;;;;11.65;7.78;;;;;;;;;;5054572;28;20432;-68
2022/08/13 06:31:38;;;;;;;11.68;7.72;;;;;;;;;;5054655;28;20056;-68
2022/08/13 06:34:09;;;;;;;12.45;8.38;;;;;;;;;;5054633;28;20029;-68
2022/08/13 06:36:37;;;;;;;8.48;7.65;;;;;;;;;;5055094;28;20017;-69
2022/08/13 06:39:05;;;;;;;8.60;7.05;;;;;;;;;;5054838;28;20032;-68
2022/08/13 06:41:33;;;;;;;10.32;7.20;;;;;;;;;;5054440;28;20469;-68
2022/08/13 06:43:59;;;;;;;10.13;6.95;;;;;;;;;;5054453;28;20043;-68
2022/08/13 06:46:28;;;;;;;10.00;7.05;;;;;;;;;;5054380;28;20100;-69
2022/08/13 06:48:55;;;;;;;10.07;7.45;;;;;;;;;;5054922;28;20025;-68
2022/08/13 06:51:22;;;;;;;11.02;7.03;;;;;;;;;;5036342;28;20460;-68
2022/08/13 06:53:49;;;;;;;12.20;7.35;;;;;;;;;;5054066;28;20155;-69
2022/08/13 06:56:19;;;;;;;10.48;7.35;;;;;;;;;;5054457;28;20393;-68
2022/08/13 06:58:46;;;;;;;14.93;9.57;;;;;;;;;;5054145;28;20433;-68
2022/08/13 07:01:20;;;;;;;11.02;7.20;;;;;;;;;;5053769;28;20033;-68
2022/08/13 07:03:46;;;;;;;10.15;7.70;;;;;;;;;;5054308;28;20051;-68
2022/08/13 07:06:16;;;;;;;9.40;8.20;;;;;;;;;;5054522;28;20021;-68
2022/08/13 07:08:43;;;;;;;8.80;7.78;;;;;;;;;;5053976;28;20493;-69
2022/08/13 07:11:21;;;;;;;11.35;7.70;;;;;;;;;;5053886;28;20074;-68
2022/08/13 07:13:49;;;;;;;14.00;8.10;;;;;;;;;;5054437;28;20481;-68
2022/08/13 07:16:17;;;;;;;9.90;8.18;;;;;;;;;;5054212;28;20099;-69
2022/08/13 07:18:47;;;;;;;10.20;8.13;;;;;;;;;;5053777;28;20033;-68
2022/08/13 07:21:16;;;;;;;11.18;7.93;;;;;;;;;;5053735;28;20032;-68
2022/08/13 07:23:43;;;;;;;11.65;8.07;;;;;;;;;;5053543;28;20025;-68
2022/08/13 07:26:09;;;;;;;9.18;7.97;;;;;;;;;;5053611;28;20032;-69
2022/08/13 07:28:35;;;;;;;11.68;8.35;;;;;;;;;;5053521;28;20032;-67
2022/08/13 07:31:04;;;;;;;9.73;7.63;;;;;;;;;;5053798;28;20432;-68
2022/08/13 07:33:30;;;;;;;10.02;8.10;;;;;;;;;;5052955;28;20028;-67
2022/08/13 07:35:56;;;;;;;9.65;7.55;;;;;;;;;;5053467;28;20037;-68
2022/08/13 07:38:25;;;;;;;11.73;7.43;;;;;;;;;;5053421;28;20382;-69
2022/08/13 07:40:52;;;;;;;9.20;7.30;;;;;;;;;;5035481;28;20029;-69
2022/08/13 07:43:22;;;;;;;11.25;7.60;;;;;;;;;;5053638;28;20017;-68
2022/08/13 07:46:09;;;;;;;12.27;6.72;;;;;;;;;;5053970;28;20053;-69
2022/08/13 07:48:36;;;;;;;7.32;6.47;;;;;;;;;;5035223;28;20025;-68
2022/08/13 07:51:03;;;;;;;14.23;7.05;;;;;;;;;;5053577;28;20051;-69
2022/08/13 07:53:29;;;;;;;11.20;6.57;;;;;;;;;;5053227;28;20516;-69
2022/08/13 07:55:56;;;;;;;8.73;5.70;;;;;;;;;;5053190;28;20041;-69
2022/08/13 07:58:28;;;;;;;10.50;5.95;;;;;;;;;;5053453;28;20032;-68
2022/08/13 08:00:59;;;;;;;8.20;5.55;;;;;;;;;;5053259;28;20021;-68
2022/08/13 08:03:30;;;;;;;6.38;5.15;;;;;;;;;;5053705;28;20135;-69
2022/08/13 08:05:58;;;;;;;8.82;5.55;;;;;;;;;;5053155;28;20044;-69
2022/08/13 08:08:26;;;;;;;9.52;5.72;;;;;;;;;;5053650;28;20029;-68
2022/08/13 08:10:54;;;;;;;9.70;5.15;;;;;;;;;;5053328;28;20024;-69
2022/08/13 08:13:21;;;;;;;6.75;4.90;;;;;;;;;;5053341;28;20201;-69
2022/08/13 08:15:47;;;;;;;10.13;5.43;;;;;;;;;;5053529;28;20159;-67
2022/08/13 08:18:13;;;;;;;7.25;4.78;;;;;;;;;;5052827;28;20108;-69
2022/08/13 08:20:42;;;;;;;7.60;5.05;;;;;;;;;;5052900;28;20033;-74
2022/08/13 08:23:09;;;;;;;8.48;5.07;;;;;;;;;;5053011;28;20021;-79
2022/08/13 08:25:36;;;;;;;7.93;4.63;;;;;;;;;;5052989;28;20025;-72
2022/08/13 08:28:02;;;;;;;6.22;4.45;;;;;;;;;;5053135;28;20437;-72
2022/08/13 08:30:28;;;;;;;9.20;4.70;;;;;;;;;;5052883;28;20029;-70
2022/08/13 08:32:56;;;;;;;6.63;4.13;;;;;;;;;;5043165;28;20036;-69
2022/08/13 08:35:22;;;;;;;8.77;4.40;;;;;;;;;;5041541;28;20144;-69
2022/08/13 08:43:28;;;;;;;8.25;3.78;;;;;;;;;;5047279;28;20036;-69
2022/08/13 08:45:54;;;;;;;6.30;3.78;;;;;;;;;;5055710;28;20021;-70
2022/08/13 08:48:20;;;;;;;7.45;4.55;;;;;;;;;;5056519;28;20078;-70
2022/08/13 08:50:46;;;;;;;5.53;3.83;;;;;;;;;;5038959;28;20495;-70
2022/08/13 08:53:23;;;;;;;6.72;3.70;;;;;;;;;;5041879;28;20022;-70
2022/08/13 08:55:50;;;;;;;9.48;3.50;;;;;;;;;;5043528;28;20049;-70
2022/08/13 08:58:18;;;;;;;5.65;2.78;;;;;;;;;;5036582;28;20097;-69
2022/08/13 09:00:47;;;;;;;8.20;3.05;;;;;;;;;;5036654;28;20030;-70
2022/08/13 09:03:18;;;;;;;5.55;3.05;;;;;;;;;;5036653;28;20018;-70
2022/08/13 09:05:45;;;;;;;4.60;3.00;;;;;;;;;;5036870;28;20025;-70
2022/08/13 09:08:11;;;;;;;5.20;2.85;;;;;;;;;;5036376;28;20013;-69
2022/08/13 09:10:37;;;;;;;3.60;2.80;;;;;;;;;;5036503;28;20109;-70
2022/08/13 09:13:04;;;;;;;5.68;3.17;;;;;;;;;;5036218;28;20028;-70
2022/08/13 09:15:33;;;;;;;5.80;2.88;;;;;;;;;;5036698;28;20029;-70
2022/08/13 09:18:00;;;;;;;5.88;2.92;;;;;;;;;;5036093;28;20021;-69
2022/08/13 09:20:28;;;;;;;6.18;3.17;;;;;;;;;;5036107;28;20090;-69
2022/08/13 09:23:00;;;;;;;6.93;3.00;;;;;;;;;;5038669;28;20028;-70
2022/08/13 09:25:26;;;;;;;3.92;2.55;;;;;;;;;;5056025;28;20025;-69
2022/08/13 09:27:53;;;;;;;6.00;2.92;;;;;;;;;;5056252;28;20036;-70
2022/08/13 09:30:20;;;;;;;6.22;2.85;;;;;;;;;;5055758;28;20021;-70
2022/08/13 09:32:48;;;;;;;6.93;3.30;;;;;;;;;;5055769;28;20035;-69
2022/08/13 09:35:14;;;;;;;3.75;2.72;;;;;;;;;;5056255;28;20075;-70
2022/08/13 09:37:40;;;;;;;5.70;3.00;;;;;;;;;;5055940;28;20033;-70
2022/08/13 09:40:12;;;;;;;5.38;2.90;;;;;;;;;;5055569;28;20056;-70
2022/08/13 09:42:52;;;;;;;4.18;2.53;;;;;;;;;;5050962;28;20109;-70
2022/08/13 09:45:19;;;;;;;6.82;2.70;;;;;;;;;;5036231;28;20096;-70
2022/08/13 09:47:45;;;;;;;3.95;2.60;;;;;;;;;;5036063;28;20032;-69
2022/08/13 09:50:11;;;;;;;4.93;2.38;;;;;;;;;;5035778;28;20033;-74
2022/08/13 09:52:37;;;;;;;5.15;2.47;;;;;;;;;;5035408;28;20033;-75
2022/08/13 09:55:05;;;;;;;7.45;3.15;;;;;;;;;;5034636;28;20136;-69
2022/08/13 09:57:31;;;;;;;3.05;2.10;;;;;;;;;;5035656;28;20026;-71
2022/08/13 09:59:57;;;;;;;9.05;2.70;;;;;;;;;;5035166;28;20446;-71
2022/08/13 10:02:23;;;;;;;5.35;2.50;;;;;;;;;;5035296;28;20065;-71
2022/08/13 10:04:52;;;;;;;3.30;2.40;;;;;;;;;;5035454;28;20021;-68
2022/08/13 10:07:19;;;;;;;6.72;2.70;;;;;;;;;;5035227;28;20060;-69
2022/08/13 10:09:45;;;;;;;3.72;2.40;;;;;;;;;;5035122;28;20521;-69
2022/08/13 10:12:13;;;;;;;5.13;2.47;;;;;;;;;;5035456;28;20048;-70
2022/08/13 10:14:40;;;;;;;4.40;2.37;;;;;;;;;;5035353;28;20018;-70
2022/08/13 10:17:07;;;;;;;6.32;2.78;;;;;;;;;;5041476;28;20076;-70
2022/08/13 10:19:33;;;;;;;8.50;2.58;;;;;;;;;;5039795;28;20105;-68
2022/08/13 10:21:59;;;;;;;3.50;2.30;;;;;;;;;;5043712;28;20035;-69
2022/08/13 10:24:25;;;;;;;5.60;2.50;;;;;;;;;;5055412;28;20029;-70
2022/08/13 10:26:52;;;;;;;4.43;2.42;;;;;;;;;;5054862;28;20024;-71
2022/08/13 10:29:18;;;;;;;5.20;2.53;;;;;;;;;;5055421;28;20108;-69
2022/08/13 10:31:44;;;;;;;6.32;2.90;;;;;;;;;;5054364;28;20100;-69
2022/08/13 10:34:10;;;;;;;4.75;2.38;;;;;;;;;;5054568;28;20051;-68
2022/08/13 10:36:37;;;;;;;3.58;2.20;;;;;;;;;;5054579;28;20385;-70
2022/08/13 10:39:04;;;;;;;3.38;2.10;;;;;;;;;;5053479;28;20052;-70
2022/08/13 10:41:30;;;;;;;5.55;2.28;;;;;;;;;;5052533;28;20500;-69
2022/08/13 10:43:59;;;;;;;3.00;2.08;;;;;;;;;;5052584;28;20024;-69
2022/08/13 10:46:26;;;;;;;4.68;2.40;;;;;;;;;;5052483;28;20389;-70
2022/08/13 10:48:55;;;;;;;4.97;2.63;;;;;;;;;;5052441;28;20071;-71
2022/08/13 10:51:21;;;;;;;;;;;;;;;;;;5052891;28;20025;-69
2022/08/13 10:53:58;;;;;;;4.35;2.50;;;;;;;;;;5052766;28;20266;-69
2022/08/13 10:56:24;;;;;;;7.07;2.47;;;;;;;;;;5054227;28;20025;-70
2022/08/13 10:58:50;;;;;;;7.05;2.38;;;;;;;;;;5054173;28;20395;-68
2022/08/13 11:01:22;;;;;;;4.80;2.30;;;;;;;;;;5054253;28;20106;-68
2022/08/13 11:03:48;;;;;;;2.60;2.10;;;;;;;;;;5054709;28;20024;-70
2022/08/13 11:06:16;;;;;;;3.53;2.25;;;;;;;;;;5054146;28;20041;-72
2022/08/13 11:08:42;;;;;;;3.45;2.22;;;;;;;;;;5053193;28;20032;-69
2022/08/13 11:11:09;;;;;;;5.57;2.53;;;;;;;;;;5053963;28;20104;-68
2022/08/13 11:13:36;;;;;;;4.40;2.35;;;;;;;;;;5054177;28;20032;-71
2022/08/13 11:16:03;;;;;;;1.83;1.65;;;;;;;;;;5053896;28;20466;-70
2022/08/13 11:18:29;;;;;;;2.85;2.10;;;;;;;;;;5053727;28;20073;-69
2022/08/13 11:21:08;;;;;;;3.67;2.20;;;;;;;;;;5053958;28;20041;-68
2022/08/13 11:23:35;;;;;;;3.40;2.00;;;;;;;;;;5054302;28;20403;-71
2022/08/13 11:26:01;;;;;;;4.40;2.10;;;;;;;;;;5053893;28;20021;-69
2022/08/13 11:28:28;;;;;;;4.90;2.15;;;;;;;;;;5054401;28;20019;-68
2022/08/13 11:30:54;;;;;;;3.47;2.15;;;;;;;;;;5054114;28;20033;-70
2022/08/13 11:33:22;;;;;;;4.38;1.98;;;;;;;;;;5053798;28;20024;-69
2022/08/13 11:35:51;;;;;;;5.15;2.33;;;;;;;;;;5053541;28;20052;-70
2022/08/13 11:38:17;;;;;;;;;;;;;;;;;;5035828;28;20078;-69
2022/08/13 11:40:51;;;;;;;3.05;2.08;;;;;;;;;;5053414;28;19912;-68
2022/08/13 11:43:17;;;;;;;2.45;2.20;;;;;;;;;;5053738;28;20029;-70
2022/08/13 11:45:43;;;;;;;5.57;2.40;;;;;;;;;;5053626;28;20025;-69
2022/08/13 11:48:09;;;;;;;5.97;2.17;;;;;;;;;;5053295;28;20025;-69
2022/08/13 11:50:35;;;;;;;4.47;1.83;;;;;;;;;;5053289;28;20025;-69
2022/08/13 11:53:01;;;;;;;3.22;2.10;;;;;;;;;;5053283;28;20432;-70
2022/08/13 11:55:27;;;;;;;2.45;1.90;;;;;;;;;;5052870;28;20053;-70
2022/08/13 11:58:00;;;;;;;4.15;2.05;;;;;;;;;;5053203;28;20059;-70
2022/08/13 12:00:26;;;;;;;5.72;2.10;;;;;;;;;;5053254;28;20029;-69
2022/08/13 12:02:53;;;;;;;4.82;1.80;;;;;;;;;;5053183;28;20091;-69
2022/08/13 12:05:19;;;;;;;2.97;1.90;;;;;;;;;;5053374;28;20029;-69
2022/08/13 12:07:45;;;;;;;4.15;2.47;;;;;;;;;;5053393;28;20481;-70
2022/08/13 12:10:11;;;;;;;3.95;2.10;;;;;;;;;;5053101;28;20032;-70
2022/08/13 12:12:37;;;;;;;2.70;2.05;;;;;;;;;;5053085;28;20456;-68
2022/08/13 12:15:04;;;;;;;3.60;2.10;;;;;;;;;;5053283;28;20036;-70
2022/08/13 12:17:30;;;;;;;3.35;1.98;;;;;;;;;;5035126;28;20370;-71
2022/08/13 12:19:56;;;;;;;4.53;2.30;;;;;;;;;;5056172;28;20029;-70
2022/08/13 12:22:22;;;;;;;2.58;1.95;;;;;;;;;;5057107;28;20075;-70
2022/08/13 12:24:48;;;;;;;3.78;1.98;;;;;;;;;;5057052;28;20094;-68
2022/08/13 12:27:14;;;;;;;5.32;2.38;;;;;;;;;;5057024;28;20478;-70
2022/08/13 12:29:40;;;;;;;5.60;1.60;;;;;;;;;;5057546;28;20388;-72
2022/08/13 12:32:06;;;;;;;3.88;1.92;;;;;;;;;;5056930;28;20091;-69
2022/08/13 12:34:32;;;;;;;4.20;1.80;;;;;;;;;;5056883;28;20060;-69
2022/08/13 12:36:58;;;;;;;1.92;1.73;;;;;;;;;;5056846;28;20031;-71
2022/08/13 12:39:24;;;;;;;2.92;2.00;;;;;;;;;;5056783;28;20397;-69
2022/08/13 12:41:50;;;;;;;3.00;1.83;;;;;;;;;;5056634;28;20021;-70
2022/08/13 12:44:16;;;;;;;6.00;2.17;;;;;;;;;;5057016;28;20068;-68
2022/08/13 12:46:42;;;;;;;3.75;1.95;;;;;;;;;;5056683;28;20531;-69
2022/08/13 12:49:08;;;;;;;3.17;2.10;;;;;;;;;;5056598;28;20111;-69
2022/08/13 12:51:34;;;;;;;8.70;2.08;;;;;;;;;;5056579;28;20055;-71
2022/08/13 12:54:00;;;;;;;3.28;1.80;;;;;;;;;;5043249;28;20478;-69
2022/08/13 12:56:26;;;;;;;3.22;1.77;;;;;;;;;;5076441;28;20482;-70
2022/08/13 12:58:52;;;;;;;6.68;1.80;;;;;;;;;;5076698;28;20043;-71
2022/08/13 13:01:18;;;;;;;3.50;2.00;;;;;;;;;;5076352;28;20373;-71
2022/08/13 13:03:44;;;;;;;4.43;2.08;;;;;;;;;;5076335;28;20020;-72
2022/08/13 13:06:13;;;;;;;4.72;1.70;;;;;;;;;;5076551;28;20032;-71
2022/08/13 13:08:40;;;;;;;3.85;1.90;;;;;;;;;;5076542;28;20017;-70
2022/08/13 13:11:10;;;;;;;4.93;2.10;;;;;;;;;;5076410;28;20032;-69
2022/08/13 13:13:36;;;;;;;2.83;1.70;;;;;;;;;;5076153;28;20385;-71
2022/08/13 13:16:03;;;;;;;2.95;1.98;;;;;;;;;;5076081;28;20103;-69
2022/08/13 13:18:29;;;;;;;3.53;1.98;;;;;;;;;;5076337;28;20033;-70
2022/08/13 13:20:56;;;;;;;4.97;2.10;;;;;;;;;;5075959;28;20032;-71
2022/08/13 13:23:23;;;;;;;2.80;2.05;;;;;;;;;;5076280;28;20380;-68
2022/08/13 13:25:51;;;;;;;3.58;2.08;;;;;;;;;;5075947;28;20420;-69
2022/08/13 13:28:21;;;;;;;5.00;2.13;;;;;;;;;;5076749;28;20013;-70
2022/08/13 13:30:48;;;;;;;3.08;1.92;;;;;;;;;;5075205;28;20025;-70
2022/08/13 13:33:15;;;;;;;4.38;2.03;;;;;;;;;;5075799;28;20031;-69
2022/08/13 13:35:42;;;;;;;2.92;1.92;;;;;;;;;;5076161;28;20028;-69
2022/08/13 13:38:09;;;;;;;3.42;2.10;;;;;;;;;;5075756;28;20563;-68
2022/08/13 13:40:39;;;;;;;4.53;1.77;;;;;;;;;;5075643;28;20024;-69
2022/08/13 13:43:05;;;;;;;3.63;1.92;;;;;;;;;;5075967;28;20073;-68
2022/08/13 13:45:32;;;;;;;3.53;2.00;;;;;;;;;;5075886;28;20023;-70
2022/08/13 13:48:00;;;;;;;2.38;1.75;;;;;;;;;;5076095;28;20059;-70
2022/08/13 13:50:26;;;;;;;4.55;1.88;;;;;;;;;;5075524;28;20396;-71
2022/08/13 13:52:53;;;;;;;6.35;2.38;;;;;;;;;;5075501;28;20107;-70
2022/08/13 13:55:19;;;;;;;5.68;1.90;;;;;;;;;;5060421;28;20044;-70
2022/08/13 13:57:45;;;;;;;7.88;2.10;;;;;;;;;;5055346;28;20021;-70
2022/08/13 14:00:12;;;;;;;3.83;1.90;;;;;;;;;;5055183;28;20082;-71
2022/08/13 14:02:47;;;;;;;4.32;2.00;;;;;;;;;;5055286;28;20025;-69
2022/08/13 14:05:13;;;;;;;3.90;2.08;;;;;;;;;;5037077;28;20064;-72
2022/08/13 14:07:40;;;;;;;3.53;1.90;;;;;;;;;;5055455;28;20067;-69
2022/08/13 14:10:06;;;;;;;3.10;1.92;;;;;;;;;;5055453;28;20029;-68
2022/08/13 14:12:32;;;;;;;5.03;2.13;;;;;;;;;;5055624;28;20032;-69
2022/08/13 14:14:58;;;;;;;2.53;1.90;;;;;;;;;;5055644;28;20025;-70
2022/08/13 14:17:30;;;;;;;1.98;1.77;;;;;;;;;;5055313;28;20516;-72
2022/08/13 14:19:56;;;;;;;7.75;2.30;;;;;;;;;;5036763;28;20033;-70
2022/08/13 14:22:22;;;;;;;3.20;1.80;;;;;;;;;;5054923;28;20025;-69
2022/08/13 14:24:50;;;;;;;5.32;1.98;;;;;;;;;;5055458;28;20021;-68
2022/08/13 14:27:17;;;;;;;4.25;1.90;;;;;;;;;;5054788;28;20068;-69
2022/08/13 14:29:43;;;;;;;4.28;1.60;;;;;;;;;;5055265;28;20482;-70
2022/08/13 14:32:09;;;;;;;2.75;1.70;;;;;;;;;;5054694;28;20039;-70
2022/08/13 14:34:35;;;;;;;2.90;2.08;;;;;;;;;;5054900;28;20033;-69
2022/08/13 14:37:02;;;;;;;3.47;2.00;;;;;;;;;;5036760;28;20052;-70
2022/08/13 14:39:28;;;;;;;2.53;1.88;;;;;;;;;;5054820;28;20405;-70
2022/08/13 14:41:54;;;;;;;4.22;1.90;;;;;;;;;;5054363;28;20025;-68
2022/08/13 14:44:20;;;;;;;4.38;2.17;;;;;;;;;;5036543;28;20025;-71
2022/08/13 14:46:46;;;;;;;2.95;2.00;;;;;;;;;;5054922;28;20021;-70
2022/08/13 14:49:12;;;;;;;1.92;1.70;;;;;;;;;;5054899;28;20029;-71
2022/08/13 14:51:39;;;;;;;8.13;2.00;;;;;;;;;;5054862;28;20021;-70
2022/08/13 14:54:06;;;;;;;3.40;1.80;;;;;;;;;;5054259;28;20600;-70
2022/08/13 14:56:31;;;;;;;4.07;2.03;;;;;;;;;;5054582;28;20034;-71
2022/08/13 14:58:58;;;;;;;3.70;2.10;;;;;;;;;;5054450;28;20025;-68